createdAt,value
2017-12-12T00:00:01.026Z,18.10
2017-12-12T00:02:28.570Z,16.35
2017-12-12T00:04:56.079Z,16.27
2017-12-12T00:07:23.562Z,16.83
2017-12-12T00:09:51.048Z,13.77
2017-12-12T00:12:18.575Z,18.15
2017-12-12T00:14:46.086Z,15.43
2017-12-12T00:17:13.590Z,14.68
2017-12-12T00:19:41.967Z,16.42
2017-12-12T00:22:09.484Z,15.98
2017-12-12T00:24:36.983Z,16.35
2017-12-12T00:27:04.502Z,15.10
2017-12-12T00:29:31.989Z,15.65
2017-12-12T00:32:00.279Z,15.13
2017-12-12T00:34:27.770Z,17.27
2017-12-12T00:36:55.252Z,16.00
2017-12-12T00:39:22.804Z,15.13
2017-12-12T00:41:50.353Z,15.10
2017-12-12T00:44:17.876Z,14.35
2017-12-12T00:46:45.389Z,14.43
2017-12-12T00:49:12.884Z,13.65
2017-12-12T00:51:41.145Z,14.68
2017-12-12T00:54:08.652Z,13.13
2017-12-12T00:56:36.144Z,15.00
2017-12-12T00:59:03.671Z,14.82
2017-12-12T01:01:31.146Z,14.20
2017-12-12T01:03:58.635Z,14.63
2017-12-12T01:06:26.183Z,14.48
2017-12-12T01:08:53.745Z,14.60
2017-12-12T01:11:21.237Z,15.23
2017-12-12T01:13:48.695Z,13.88
2017-12-12T01:16:16.192Z,13.35
2017-12-12T01:18:43.659Z,14.60
2017-12-12T01:21:11.150Z,13.15
2017-12-12T01:23:39.538Z,15.60
2017-12-12T01:26:07.813Z,15.20
2017-12-12T01:28:35.284Z,14.10
2017-12-12T01:31:02.825Z,15.65
2017-12-12T01:33:31.124Z,14.48
2017-12-12T01:35:58.657Z,12.15
2017-12-12T01:38:26.226Z,14.75
2017-12-12T01:40:53.746Z,13.90
2017-12-12T01:43:21.239Z,12.93
2017-12-12T01:45:48.741Z,14.20
2017-12-12T01:48:16.250Z,13.20
2017-12-12T01:50:44.535Z,12.80
2017-12-12T01:53:12.088Z,12.27
2017-12-12T01:55:39.634Z,14.30
2017-12-12T01:58:07.116Z,13.80
2017-12-12T02:00:34.616Z,14.75
2017-12-12T02:03:02.095Z,14.27
2017-12-12T02:05:29.595Z,14.13
2017-12-12T02:07:57.084Z,15.20
2017-12-12T02:10:24.602Z,14.25
2017-12-12T02:12:52.860Z,14.50
2017-12-12T02:15:20.347Z,15.23
2017-12-12T02:17:47.860Z,16.02
2017-12-12T02:20:15.449Z,16.87
2017-12-12T02:22:42.990Z,17.58
2017-12-12T02:25:10.479Z,14.77
2017-12-12T02:27:38.141Z,16.35
2017-12-12T02:30:05.627Z,17.17
2017-12-12T02:32:33.120Z,15.70
2017-12-12T02:35:00.613Z,16.85
2017-12-12T02:37:28.132Z,16.83
2017-12-12T02:39:55.616Z,16.60
2017-12-12T02:42:23.115Z,15.40
2017-12-12T02:44:50.647Z,16.37
2017-12-12T02:47:18.191Z,15.55
2017-12-12T02:49:46.467Z,16.23
2017-12-12T02:52:14.019Z,16.02
2017-12-12T02:54:41.657Z,14.77
2017-12-12T02:57:09.163Z,16.00
2017-12-12T02:59:36.664Z,14.82
2017-12-12T03:02:04.138Z,12.07
2017-12-12T03:04:31.723Z,13.52
2017-12-12T03:06:59.974Z,12.95
2017-12-12T03:09:27.558Z,12.70
2017-12-12T03:11:55.083Z,11.80
2017-12-12T03:14:22.890Z,11.95
2017-12-12T03:16:50.423Z,11.20
2017-12-12T03:19:17.910Z,12.37
2017-12-12T03:21:45.372Z,11.55
2017-12-12T03:24:12.873Z,9.77
2017-12-12T03:26:40.604Z,11.85
2017-12-12T03:29:08.139Z,9.55
2017-12-12T03:31:35.638Z,10.95
2017-12-12T03:34:03.123Z,10.27
2017-12-12T03:36:30.603Z,10.98
2017-12-12T03:38:58.843Z,10.52
2017-12-12T03:41:26.324Z,11.45
2017-12-12T03:43:54.618Z,8.98
2017-12-12T03:46:22.867Z,10.85
2017-12-12T03:48:50.397Z,10.60
2017-12-12T03:51:17.876Z,11.20
2017-12-12T03:53:45.374Z,9.63
2017-12-12T03:56:12.835Z,10.25
2017-12-12T03:58:40.378Z,10.05
2017-12-12T04:01:07.951Z,10.02
2017-12-12T04:03:35.468Z,10.40
2017-12-12T04:06:02.931Z,9.65
2017-12-12T04:08:31.206Z,9.95
2017-12-12T04:10:58.692Z,11.12
2017-12-12T04:13:26.200Z,11.38
2017-12-12T04:15:53.704Z,11.25
2017-12-12T04:18:21.931Z,11.02
2017-12-12T04:20:49.412Z,10.73
2017-12-12T04:23:16.894Z,11.07
2017-12-12T04:25:44.381Z,11.23
2017-12-12T04:28:11.915Z,11.38
2017-12-12T04:30:39.422Z,8.80
2017-12-12T04:33:06.912Z,11.35
2017-12-12T04:35:34.417Z,10.35
2017-12-12T04:38:01.911Z,11.25
2017-12-12T04:40:29.410Z,10.65
2017-12-12T04:42:56.909Z,10.25
2017-12-12T04:45:24.394Z,10.93
2017-12-12T04:47:51.883Z,9.90
2017-12-12T04:50:19.382Z,9.23
2017-12-12T04:52:46.862Z,12.45
2017-12-12T04:55:14.331Z,9.60
2017-12-12T04:57:42.558Z,9.27
2017-12-12T05:00:10.056Z,10.63
2017-12-12T05:02:37.668Z,10.35
2017-12-12T05:05:05.193Z,9.02
2017-12-12T05:07:32.690Z,10.20
2017-12-12T05:10:00.172Z,10.23
2017-12-12T05:12:27.684Z,9.98
2017-12-12T05:14:55.163Z,10.23
2017-12-12T05:17:22.703Z,8.52
2017-12-12T05:19:50.204Z,10.45
2017-12-12T05:22:17.690Z,9.48
2017-12-12T05:24:45.999Z,10.05
2017-12-12T05:27:13.498Z,10.38
2017-12-12T05:29:41.004Z,10.57
2017-12-12T05:32:08.587Z,10.05
2017-12-12T05:34:36.053Z,10.20
2017-12-12T05:37:03.543Z,9.27
2017-12-12T05:39:31.034Z,11.32
2017-12-12T05:41:58.512Z,10.45
2017-12-12T05:44:26.062Z,9.60
2017-12-12T05:46:56.939Z,9.70
2017-12-12T05:49:24.480Z,9.75
2017-12-12T05:51:51.973Z,11.50
2017-12-12T05:54:19.450Z,11.10
2017-12-12T05:56:46.950Z,10.20
2017-12-12T05:59:14.402Z,11.15
2017-12-12T06:01:41.909Z,12.50
2017-12-12T06:04:09.407Z,12.35
2017-12-12T06:06:36.901Z,13.38
2017-12-12T06:09:04.475Z,13.40
2017-12-12T06:11:31.969Z,15.07
2017-12-12T06:13:59.558Z,15.00
2017-12-12T06:16:27.036Z,13.80
2017-12-12T06:18:54.519Z,14.35
2017-12-12T06:21:22.071Z,14.57
2017-12-12T06:23:49.578Z,15.90
2017-12-12T06:26:17.044Z,16.20
2017-12-12T06:28:44.674Z,16.15
2017-12-12T06:31:12.178Z,18.02
2017-12-12T06:33:39.677Z,18.40
2017-12-12T06:36:07.186Z,19.27
2017-12-12T06:38:34.646Z,20.53
2017-12-12T06:41:02.129Z,17.70
2017-12-12T06:43:30.371Z,15.40
2017-12-12T06:45:58.446Z,17.73
2017-12-12T06:48:25.920Z,17.70
2017-12-12T06:50:53.410Z,17.12
2017-12-12T06:53:21.642Z,17.80
2017-12-12T06:55:49.176Z,19.12
2017-12-12T06:58:16.858Z,19.00
2017-12-12T07:00:45.431Z,17.15
2017-12-12T07:03:12.945Z,18.58
2017-12-12T07:05:40.556Z,17.37
2017-12-12T07:08:08.048Z,18.30
2017-12-12T07:10:37.057Z,17.75
2017-12-12T07:13:04.754Z,18.00
2017-12-12T07:15:33.143Z,18.67
2017-12-12T07:18:00.661Z,18.05
2017-12-12T07:20:28.155Z,18.10
2017-12-12T07:22:55.652Z,19.58
2017-12-12T07:25:23.133Z,19.45
2017-12-12T07:27:50.591Z,18.90
2017-12-12T07:30:18.121Z,19.70
2017-12-12T07:32:46.377Z,19.08
2017-12-12T07:35:16.313Z,20.35
2017-12-12T07:37:45.934Z,19.85
2017-12-12T07:40:13.517Z,19.55
2017-12-12T07:42:45.263Z,20.73
2017-12-12T07:45:12.876Z,19.77
2017-12-12T07:52:57.168Z,20.65
2017-12-12T07:55:27.974Z,19.87
2017-12-12T07:58:03.271Z,19.48
2017-12-12T08:00:37.675Z,20.15
2017-12-12T08:03:13.376Z,20.15
2017-12-12T08:05:41.724Z,18.12
2017-12-12T08:08:14.639Z,21.67
2017-12-12T08:10:42.175Z,18.33
2017-12-12T08:13:09.684Z,19.83
2017-12-12T08:15:50.636Z,18.70
2017-12-12T08:18:18.194Z,19.20
2017-12-12T08:20:45.673Z,18.85
2017-12-12T08:23:13.490Z,17.35
2017-12-12T08:25:42.057Z,17.85
2017-12-12T08:28:10.972Z,17.17
2017-12-12T08:30:38.471Z,16.95
2017-12-12T08:33:06.260Z,18.48
2017-12-12T08:38:57.550Z,16.75
2017-12-12T08:44:25.449Z,15.45
2017-12-12T08:47:08.901Z,16.20
2017-12-12T08:53:11.263Z,15.48
2017-12-12T08:55:39.584Z,16.55
2017-12-12T08:58:07.073Z,14.95
2017-12-12T09:00:35.574Z,14.73
2017-12-12T09:03:03.102Z,14.70
2017-12-12T09:05:30.566Z,14.63
2017-12-12T09:07:58.039Z,12.90
2017-12-12T09:10:25.510Z,13.68
2017-12-12T09:12:53.009Z,14.30
2017-12-12T09:15:20.470Z,14.98
2017-12-12T09:17:47.922Z,14.57
2017-12-12T09:20:15.378Z,13.80
2017-12-12T09:22:42.862Z,13.02
2017-12-12T09:25:10.330Z,11.80
2017-12-12T09:27:37.815Z,12.60
2017-12-12T09:30:05.316Z,12.15
2017-12-12T09:32:33.562Z,11.12
2017-12-12T09:35:01.026Z,12.37
2017-12-12T09:37:28.482Z,11.12
2017-12-12T09:39:56.047Z,12.30
2017-12-12T09:42:23.544Z,11.85
2017-12-12T09:44:50.982Z,11.15
2017-12-12T09:47:18.457Z,11.07
2017-12-12T09:49:45.967Z,10.02
2017-12-12T09:52:13.608Z,9.65
2017-12-12T09:54:41.099Z,10.32
2017-12-12T09:57:08.571Z,9.23
2017-12-12T09:59:36.826Z,9.90
2017-12-12T10:02:04.298Z,10.00
2017-12-12T10:04:31.947Z,10.23
2017-12-12T10:06:59.412Z,10.00
2017-12-12T10:09:26.988Z,11.15
2017-12-12T10:11:54.440Z,10.15
2017-12-12T10:14:22.677Z,10.55
2017-12-12T10:16:50.162Z,9.45
2017-12-12T10:19:17.620Z,10.20
2017-12-12T10:21:45.849Z,10.85
2017-12-12T10:24:13.312Z,9.55
2017-12-12T10:26:40.791Z,9.68
2017-12-12T10:29:08.248Z,10.50
2017-12-12T10:31:35.694Z,10.35
2017-12-12T10:34:03.163Z,11.00
2017-12-12T10:36:30.694Z,11.25
2017-12-12T10:38:58.296Z,10.82
2017-12-12T10:41:26.559Z,11.35
2017-12-12T10:43:54.034Z,10.60
2017-12-12T10:46:21.486Z,11.02
2017-12-12T10:48:48.963Z,10.27
2017-12-12T10:51:16.421Z,11.48
2017-12-12T10:53:43.923Z,11.75
2017-12-12T10:56:11.420Z,11.02
2017-12-12T10:58:39.691Z,11.38
2017-12-12T11:01:07.166Z,10.60
2017-12-12T11:03:35.392Z,10.77
2017-12-12T11:06:02.874Z,10.35
2017-12-12T11:08:30.331Z,11.30
2017-12-12T11:10:57.791Z,10.35
2017-12-12T11:13:26.094Z,10.13
2017-12-12T11:15:53.530Z,10.60
2017-12-12T11:18:21.031Z,10.75
2017-12-12T11:20:48.534Z,11.02
2017-12-12T11:23:16.003Z,10.60
2017-12-12T11:25:44.297Z,10.82
2017-12-12T11:28:11.860Z,11.52
2017-12-12T11:30:39.352Z,10.13
2017-12-12T11:33:06.833Z,11.50
2017-12-12T11:35:34.337Z,10.55
2017-12-12T11:38:01.789Z,11.10
2017-12-12T11:40:29.249Z,10.82
2017-12-12T11:42:56.742Z,11.25
2017-12-12T11:45:24.209Z,11.57
2017-12-12T11:47:51.677Z,11.10
2017-12-12T11:50:19.145Z,11.43
2017-12-12T11:52:46.615Z,13.18
2017-12-12T11:55:14.915Z,11.90
2017-12-12T11:57:42.407Z,13.05
2017-12-12T12:00:10.057Z,11.88
2017-12-12T12:02:37.534Z,13.20
2017-12-12T12:05:05.031Z,14.07
2017-12-12T12:07:33.560Z,13.68
2017-12-12T12:10:01.075Z,13.85
2017-12-12T12:12:29.327Z,13.35
2017-12-12T12:14:56.803Z,15.20
2017-12-12T12:17:24.303Z,14.63
2017-12-12T12:19:51.811Z,14.40
2017-12-12T12:22:19.266Z,14.02
2017-12-12T12:24:47.516Z,15.30
2017-12-12T12:27:15.003Z,14.50
2017-12-12T12:29:43.244Z,15.15
2017-12-12T12:32:10.711Z,14.55
2017-12-12T12:34:38.185Z,16.02
2017-12-12T12:37:06.422Z,15.18
2017-12-12T12:39:34.155Z,15.38
2017-12-12T12:42:01.631Z,16.77
2017-12-12T12:44:29.123Z,15.45
2017-12-12T12:46:56.578Z,16.05
2017-12-12T12:49:24.046Z,16.25
2017-12-12T12:51:51.515Z,15.80
2017-12-12T12:54:19.808Z,16.55
2017-12-12T12:56:47.363Z,17.40
2017-12-12T12:59:14.871Z,14.05
2017-12-12T13:01:42.345Z,13.88
2017-12-12T13:04:09.841Z,15.23
2017-12-12T13:06:37.334Z,15.05
2017-12-12T13:09:04.851Z,16.05
2017-12-12T13:11:32.422Z,14.65
2017-12-12T13:13:59.919Z,14.63
2017-12-12T13:16:27.385Z,15.18
2017-12-12T13:18:54.846Z,13.98
2017-12-12T13:21:22.322Z,13.85
2017-12-12T13:23:50.572Z,14.82
2017-12-12T13:26:18.043Z,13.43
2017-12-12T13:28:45.530Z,13.88
2017-12-12T13:31:12.967Z,14.10
2017-12-12T13:33:40.455Z,15.45
2017-12-12T13:36:07.901Z,14.60
2017-12-12T13:38:35.350Z,13.98
2017-12-12T13:41:02.843Z,14.05
2017-12-12T13:43:30.322Z,15.23
2017-12-12T13:45:57.804Z,16.37
2017-12-12T13:48:25.269Z,14.52
2017-12-12T13:50:53.542Z,14.45
2017-12-12T13:53:21.018Z,14.65
2017-12-12T13:55:48.528Z,15.80
2017-12-12T13:58:15.999Z,15.20
2017-12-12T14:00:43.490Z,13.95
2017-12-12T14:03:11.732Z,15.38
2017-12-12T14:05:39.202Z,12.70
2017-12-12T14:08:06.665Z,13.18
2017-12-12T14:10:34.148Z,12.93
2017-12-12T14:13:01.620Z,12.30
2017-12-12T14:15:29.083Z,11.77
2017-12-12T14:17:57.543Z,10.85
2017-12-12T14:20:25.014Z,11.65
2017-12-12T14:22:52.470Z,11.48
2017-12-12T14:25:19.929Z,12.18
2017-12-12T14:27:47.377Z,11.40
2017-12-12T14:30:14.836Z,10.38
2017-12-12T14:32:42.307Z,10.45
2017-12-12T14:35:09.763Z,9.77
2017-12-12T14:37:37.278Z,9.85
2017-12-12T14:40:04.831Z,11.18
2017-12-12T14:42:33.054Z,11.50
2017-12-12T14:45:00.516Z,11.50
2017-12-12T14:47:27.975Z,10.95
2017-12-12T14:49:55.454Z,11.63
2017-12-12T14:52:22.926Z,11.00
2017-12-12T14:54:50.389Z,10.77
2017-12-12T14:57:18.615Z,10.38
2017-12-12T14:59:46.119Z,10.50
2017-12-12T15:02:15.317Z,11.40
2017-12-12T15:04:43.903Z,10.50
2017-12-12T15:07:11.383Z,10.98
2017-12-12T15:09:38.839Z,11.85
2017-12-12T15:12:06.298Z,9.40
2017-12-12T15:14:33.788Z,10.32
2017-12-12T15:17:01.286Z,10.00
2017-12-12T15:19:28.786Z,10.23
2017-12-12T15:21:56.303Z,9.95
2017-12-12T15:24:23.911Z,9.80
2017-12-12T15:26:51.370Z,10.05
2017-12-12T15:29:18.875Z,9.07
2017-12-12T15:31:46.359Z,8.85
2017-12-12T15:34:13.831Z,10.00
2017-12-12T15:36:41.331Z,9.68
2017-12-12T15:39:08.817Z,11.07
2017-12-12T15:41:37.040Z,9.73
2017-12-12T15:44:04.503Z,9.13
2017-12-12T15:46:32.003Z,9.45
2017-12-12T15:48:59.470Z,9.38
2017-12-12T15:51:26.914Z,8.65
2017-12-12T15:53:55.147Z,9.10
2017-12-12T15:56:22.598Z,9.48
2017-12-12T15:58:50.079Z,9.40
2017-12-12T16:01:17.545Z,8.45
2017-12-12T16:03:45.008Z,7.72
2017-12-12T16:06:12.455Z,8.52
2017-12-12T16:08:39.915Z,8.88
2017-12-12T16:11:07.394Z,9.43
2017-12-12T16:13:35.659Z,9.18
2017-12-12T16:16:03.136Z,9.30
2017-12-12T16:18:30.621Z,8.25
2017-12-12T16:20:58.090Z,9.95
2017-12-12T16:23:25.573Z,10.02
2017-12-12T16:25:53.036Z,9.13
2017-12-12T16:28:20.494Z,9.80
2017-12-12T16:30:47.962Z,9.02
2017-12-12T16:33:16.194Z,9.25
2017-12-12T16:35:43.652Z,9.75
2017-12-12T16:38:11.152Z,10.23
2017-12-12T16:40:39.418Z,12.35
2017-12-12T16:43:06.886Z,9.65
2017-12-12T16:45:35.118Z,10.70
2017-12-12T16:48:02.589Z,10.25
2017-12-12T16:50:30.096Z,9.65
2017-12-12T16:52:57.578Z,10.73
2017-12-12T16:55:25.049Z,10.15
2017-12-12T16:57:52.556Z,11.73
2017-12-12T17:00:20.105Z,10.75
2017-12-12T17:02:48.333Z,11.93
2017-12-12T17:05:15.804Z,11.77
2017-12-12T17:07:43.261Z,11.60
2017-12-12T17:10:10.726Z,11.52
2017-12-12T17:12:38.199Z,11.95
2017-12-12T17:15:05.671Z,11.70
2017-12-12T17:17:33.887Z,13.32
2017-12-12T17:20:01.358Z,11.18
2017-12-12T17:22:28.846Z,12.80
2017-12-12T17:24:56.296Z,11.95
2017-12-12T17:27:23.764Z,11.45
2017-12-12T17:29:51.992Z,11.73
2017-12-12T17:32:19.460Z,12.23
2017-12-12T17:34:46.958Z,11.23
2017-12-12T17:37:15.171Z,11.65
2017-12-12T17:39:42.699Z,11.63
2017-12-12T17:42:10.169Z,14.43
2017-12-12T17:44:37.637Z,12.20
2017-12-12T17:47:05.102Z,12.20
2017-12-12T17:49:32.575Z,12.57
2017-12-12T17:52:00.138Z,12.27
2017-12-12T17:54:27.638Z,11.82
2017-12-12T17:56:55.221Z,13.13
2017-12-12T17:59:22.838Z,13.02
2017-12-12T18:01:50.524Z,12.63
2017-12-12T18:04:18.744Z,13.18
2017-12-12T18:06:46.274Z,11.82
2017-12-12T18:09:13.774Z,12.35
2017-12-12T18:11:41.242Z,13.48
2017-12-12T18:14:08.747Z,13.52
2017-12-12T18:16:36.267Z,13.77
2017-12-12T18:19:03.757Z,13.27
2017-12-12T18:21:31.307Z,12.70
2017-12-12T18:23:58.825Z,13.18
2017-12-12T18:26:26.459Z,13.90
2017-12-12T18:28:53.949Z,12.40
2017-12-12T18:31:21.426Z,13.02
2017-12-12T18:33:49.188Z,14.13
2017-12-12T18:36:16.667Z,15.00
2017-12-12T18:38:44.188Z,13.95
2017-12-12T18:41:11.681Z,14.32
2017-12-12T18:43:39.150Z,14.45
2017-12-12T18:46:06.655Z,15.13
2017-12-12T18:48:34.226Z,13.95
2017-12-12T18:51:01.749Z,16.80
2017-12-12T18:53:29.226Z,14.35
2017-12-12T18:55:56.686Z,15.85
2017-12-12T18:58:24.188Z,14.75
2017-12-12T19:00:52.424Z,13.90
2017-12-12T19:03:19.922Z,15.50
2017-12-12T19:05:47.493Z,15.57
2017-12-12T19:08:14.999Z,16.15
2017-12-12T19:10:45.724Z,16.17
2017-12-12T19:13:13.313Z,17.55
2017-12-12T19:15:40.914Z,17.08
2017-12-12T19:18:08.431Z,17.67
2017-12-12T19:20:36.697Z,18.20
2017-12-12T19:23:04.447Z,17.05
2017-12-12T19:25:32.061Z,15.73
2017-12-12T19:28:00.415Z,16.05
2017-12-12T19:30:31.167Z,16.45
2017-12-12T19:33:03.871Z,16.27
2017-12-12T19:35:33.278Z,18.25
2017-12-12T19:38:02.424Z,17.08
2017-12-12T19:40:32.678Z,17.95
2017-12-12T19:43:00.458Z,16.95
2017-12-12T19:45:28.136Z,16.00
2017-12-12T19:48:03.745Z,16.52
2017-12-12T19:50:31.675Z,17.65
2017-12-12T19:53:09.087Z,16.65
2017-12-12T19:55:40.575Z,18.58
2017-12-12T19:58:10.499Z,18.35
2017-12-12T20:00:39.441Z,19.98
2017-12-12T20:03:25.277Z,20.58
2017-12-12T20:11:01.852Z,21.05
2017-12-12T20:16:30.080Z,21.25
2017-12-12T20:19:04.241Z,20.02
2017-12-12T20:22:16.534Z,19.87
2017-12-12T20:46:58.915Z,19.95
2017-12-12T20:49:32.994Z,23.87
2017-12-12T20:52:21.447Z,21.45
2017-12-12T20:54:50.552Z,20.50
2017-12-12T20:57:18.598Z,24.48
2017-12-12T21:18:36.883Z,22.23
2017-12-12T21:21:04.625Z,25.60
2017-12-12T21:23:45.006Z,25.83
2017-12-12T21:26:27.533Z,26.90
2017-12-12T21:28:57.352Z,26.60
2017-12-12T21:31:26.800Z,28.17
2017-12-12T21:34:00.361Z,31.40
2017-12-12T21:36:30.278Z,28.20
2017-12-12T21:38:57.784Z,29.55
2017-12-12T21:41:25.691Z,29.60
2017-12-12T21:44:08.272Z,31.52
2017-12-12T21:49:16.563Z,32.10
2017-12-12T21:51:53.482Z,34.50
2017-12-12T21:57:15.030Z,31.33
2017-12-12T21:59:42.708Z,31.12
2017-12-12T22:02:13.511Z,33.80
2017-12-12T22:04:43.446Z,31.75
2017-12-12T22:07:13.546Z,33.00
2017-12-12T22:09:44.167Z,30.10
2017-12-12T22:12:15.936Z,33.28
2017-12-12T22:14:44.021Z,32.88
2017-12-12T22:17:16.661Z,30.75
2017-12-12T22:19:45.958Z,31.40
2017-12-12T22:22:33.402Z,29.00
2017-12-12T22:27:59.479Z,29.30
2017-12-12T22:30:36.674Z,31.00
2017-12-12T22:33:21.926Z,28.60
2017-12-12T22:35:52.478Z,27.95
2017-12-12T22:38:21.340Z,23.58
2017-12-12T22:43:44.990Z,27.05
2017-12-12T22:46:14.303Z,26.70
2017-12-12T22:48:42.718Z,25.20
2017-12-12T22:51:11.336Z,24.73
2017-12-12T22:53:52.667Z,24.87
2017-12-12T22:56:21.117Z,24.77
2017-12-12T22:58:53.376Z,23.65
2017-12-12T23:01:21.100Z,25.10
2017-12-12T23:03:49.075Z,24.65
2017-12-12T23:06:23.210Z,23.25
2017-12-12T23:08:50.918Z,24.67
2017-12-12T23:11:18.454Z,24.52
2017-12-12T23:13:46.143Z,23.65
2017-12-12T23:16:13.630Z,22.60
2017-12-12T23:18:51.743Z,23.12
2017-12-12T23:21:21.347Z,22.40
2017-12-12T23:23:56.900Z,24.05
2017-12-12T23:26:30.860Z,23.35
2017-12-12T23:29:04.167Z,21.45
2017-12-12T23:31:31.825Z,24.37
2017-12-12T23:36:37.635Z,24.65
2017-12-12T23:39:08.666Z,24.85
